createdAt,value
2023-05-20T00:00:13.786Z,24.09
2023-05-20T00:01:13.854Z,24.08
2023-05-20T00:02:13.910Z,24.08
2023-05-20T00:03:14.033Z,24.08
2023-05-20T00:04:14.199Z,24.08
2023-05-20T00:05:14.078Z,24.07
2023-05-20T00:06:14.095Z,24.07
2023-05-20T00:07:14.164Z,24.06
2023-05-20T00:08:14.197Z,24.07
2023-05-20T00:09:14.252Z,24.07
2023-05-20T00:10:14.317Z,24.07
2023-05-20T00:11:14.381Z,24.07
2023-05-20T00:12:14.411Z,24.06
2023-05-20T00:13:14.483Z,24.05
2023-05-20T00:14:14.520Z,24.06
2023-05-20T00:15:14.568Z,24.06
2023-05-20T00:16:14.665Z,24.06
2023-05-20T00:17:14.683Z,24.06
2023-05-20T00:18:14.754Z,24.06
2023-05-20T00:19:14.826Z,24.07
2023-05-20T00:20:14.834Z,24.06
2023-05-20T00:21:14.916Z,24.07
2023-05-20T00:22:14.990Z,24.07
2023-05-20T00:23:15.026Z,24.05
2023-05-20T00:24:15.079Z,24.06
2023-05-20T00:25:15.103Z,24.06
2023-05-20T00:26:15.172Z,24.07
2023-05-20T00:27:15.246Z,24.06
2023-05-20T00:28:15.306Z,24.05
2023-05-20T00:29:15.362Z,24.04
2023-05-20T00:30:15.406Z,24.06
2023-05-20T00:31:15.457Z,24.05
2023-05-20T00:32:15.583Z,24.06
2023-05-20T00:33:15.605Z,24.04
2023-05-20T00:34:15.609Z,24.05
2023-05-20T00:35:15.644Z,24.04
2023-05-20T00:36:15.724Z,24.04
2023-05-20T00:37:15.762Z,24.04
2023-05-20T00:38:15.827Z,24.05
2023-05-20T00:39:15.884Z,24.04
2023-05-20T00:40:15.977Z,24.04
2023-05-20T00:41:15.957Z,24.04
2023-05-20T00:42:16.059Z,24.03
2023-05-20T00:43:16.068Z,24.04
2023-05-20T00:44:16.140Z,24.04
2023-05-20T00:45:16.203Z,24.04
2023-05-20T00:46:16.259Z,24.04
2023-05-20T00:47:16.298Z,24.04
2023-05-20T00:48:16.396Z,24.03
2023-05-20T00:49:16.413Z,24.03
2023-05-20T00:50:16.472Z,24.03
2023-05-20T00:51:16.566Z,24.04
2023-05-20T00:52:16.604Z,24.04
2023-05-20T00:53:16.645Z,24.03
2023-05-20T00:54:16.705Z,24.04
2023-05-20T00:55:16.784Z,24.04
2023-05-20T00:56:16.838Z,24.04
2023-05-20T00:57:16.881Z,24.04
2023-05-20T00:58:17.732Z,24.03
2023-05-20T00:59:16.989Z,24.03
2023-05-20T01:00:17.054Z,24.02
2023-05-20T01:01:17.129Z,24.02
2023-05-20T01:02:17.194Z,24.02
2023-05-20T01:03:17.268Z,24.02
2023-05-20T01:04:17.296Z,24.02
2023-05-20T01:05:17.329Z,24.01
2023-05-20T01:06:17.356Z,24.02
2023-05-20T01:08:06.498Z,23.98
2023-05-20T01:09:06.485Z,23.99
2023-05-20T01:10:06.460Z,23.99
2023-05-20T01:11:06.460Z,23.99
2023-05-20T01:12:06.437Z,23.98
2023-05-20T01:13:06.481Z,23.98
2023-05-20T01:14:06.515Z,23.99
2023-05-20T01:15:06.435Z,23.99
2023-05-20T01:16:06.419Z,23.99
2023-05-20T01:17:06.434Z,24.00
2023-05-20T01:18:06.526Z,23.98
2023-05-20T01:19:06.460Z,23.99
2023-05-20T01:20:06.405Z,23.99
2023-05-20T01:21:06.377Z,23.99
2023-05-20T01:22:06.376Z,23.99
2023-05-20T01:23:06.371Z,23.99
2023-05-20T01:24:06.385Z,23.99
2023-05-20T01:25:06.370Z,24.00
2023-05-20T01:26:06.349Z,24.00
2023-05-20T01:27:06.367Z,24.00
2023-05-20T01:28:06.351Z,24.00
2023-05-20T01:29:06.336Z,24.00
2023-05-20T01:30:06.316Z,24.00
2023-05-20T01:31:06.449Z,24.00
2023-05-20T01:32:06.288Z,24.00
2023-05-20T01:33:06.329Z,23.99
2023-05-20T01:34:06.308Z,24.00
2023-05-20T01:35:06.306Z,23.99
2023-05-20T01:36:06.279Z,23.99
2023-05-20T01:37:06.289Z,23.98
2023-05-20T01:38:06.270Z,23.99
2023-05-20T01:39:06.273Z,23.99
2023-05-20T01:40:06.268Z,23.98
2023-05-20T01:41:06.258Z,23.99
2023-05-20T01:42:06.315Z,23.99
2023-05-20T01:43:06.283Z,23.99
2023-05-20T01:44:06.245Z,23.99
2023-05-20T01:45:06.232Z,23.98
2023-05-20T01:46:06.253Z,23.98
2023-05-20T01:47:06.352Z,23.98
2023-05-20T01:48:06.332Z,23.98
2023-05-20T01:49:06.383Z,23.98
2023-05-20T01:50:06.415Z,23.99
2023-05-20T01:51:06.474Z,23.98
2023-05-20T01:52:06.540Z,23.99
2023-05-20T01:53:06.599Z,23.99
2023-05-20T01:54:06.664Z,23.99
2023-05-20T01:55:06.716Z,23.98
2023-05-20T01:56:06.755Z,23.98
2023-05-20T01:57:06.812Z,23.98
2023-05-20T01:58:06.890Z,23.98
2023-05-20T01:59:06.937Z,23.98
2023-05-20T02:00:07.053Z,23.97
2023-05-20T02:01:07.116Z,23.97
2023-05-20T02:02:07.237Z,23.97
2023-05-20T02:03:07.222Z,23.97
2023-05-20T02:04:07.249Z,23.98
2023-05-20T02:05:07.255Z,23.96
2023-05-20T02:06:07.347Z,23.97
2023-05-20T02:07:07.411Z,23.97
2023-05-20T02:08:07.481Z,23.97
2023-05-20T02:09:07.492Z,23.97
2023-05-20T02:10:07.575Z,23.96
2023-05-20T02:11:07.637Z,23.97
2023-05-20T02:12:07.696Z,23.97
2023-05-20T02:13:07.741Z,23.97
2023-05-20T02:14:07.780Z,23.97
2023-05-20T02:15:07.855Z,23.96
2023-05-20T02:16:07.923Z,23.97
2023-05-20T02:17:07.935Z,23.97
2023-05-20T02:18:08.068Z,23.97
2023-05-20T02:19:08.079Z,23.96
2023-05-20T02:20:08.103Z,23.97
2023-05-20T02:21:08.172Z,23.96
2023-05-20T02:22:08.250Z,23.97
2023-05-20T02:23:08.262Z,23.96
2023-05-20T02:24:08.355Z,23.96
2023-05-20T02:25:08.432Z,23.96
2023-05-20T02:26:08.441Z,23.96
2023-05-20T02:27:08.488Z,23.96
2023-05-20T02:28:08.577Z,23.95
2023-05-20T02:29:08.606Z,23.95
2023-05-20T02:30:08.674Z,23.95
2023-05-20T02:31:08.756Z,23.95
2023-05-20T02:32:08.824Z,23.96
2023-05-20T02:33:08.896Z,23.96
2023-05-20T02:34:08.910Z,23.96
2023-05-20T02:35:08.935Z,23.95
2023-05-20T02:36:09.020Z,23.95
2023-05-20T02:37:09.035Z,23.95
2023-05-20T02:38:09.201Z,23.95
2023-05-20T02:39:09.174Z,23.95
2023-05-20T02:40:09.255Z,23.94
2023-05-20T02:41:09.267Z,23.94
2023-05-20T02:42:09.305Z,23.95
2023-05-20T02:43:09.360Z,23.94
2023-05-20T02:44:09.383Z,23.94
2023-05-20T02:45:09.484Z,23.94
2023-05-20T02:46:09.608Z,23.95
2023-05-20T02:47:09.546Z,23.94
2023-05-20T02:48:09.649Z,23.95
2023-05-20T02:49:09.675Z,23.94
2023-05-20T02:50:09.717Z,23.95
2023-05-20T02:51:09.743Z,23.94
2023-05-20T02:52:09.820Z,23.93
2023-05-20T02:53:09.899Z,23.93
2023-05-20T02:54:09.953Z,23.93
2023-05-20T02:55:09.967Z,23.94
2023-05-20T02:56:10.038Z,23.93
2023-05-20T02:57:10.089Z,23.94
2023-05-20T02:58:10.157Z,23.93
2023-05-20T02:59:10.215Z,23.93
2023-05-20T03:00:10.233Z,23.93
2023-05-20T03:01:10.361Z,23.94
2023-05-20T03:02:10.362Z,23.94
2023-05-20T03:03:10.486Z,23.93
2023-05-20T03:04:10.500Z,23.93
2023-05-20T03:05:10.537Z,23.93
2023-05-20T03:06:10.609Z,23.92
2023-05-20T03:07:10.640Z,23.92
2023-05-20T03:08:10.760Z,23.93
2023-05-20T03:09:10.788Z,23.93
2023-05-20T03:10:10.820Z,23.94
2023-05-20T03:11:10.911Z,23.93
2023-05-20T03:12:10.938Z,23.92
2023-05-20T03:13:11.034Z,23.93
2023-05-20T03:14:11.048Z,23.92
2023-05-20T03:15:11.102Z,23.93
2023-05-20T03:16:11.189Z,23.92
2023-05-20T03:17:11.239Z,23.92
2023-05-20T03:18:11.291Z,23.93
2023-05-20T03:19:11.384Z,23.92
2023-05-20T03:20:11.405Z,23.92
2023-05-20T03:21:11.451Z,23.92
2023-05-20T03:22:11.496Z,23.92
2023-05-20T03:23:11.554Z,23.92
2023-05-20T03:24:11.621Z,23.91
2023-05-20T03:25:11.686Z,23.92
2023-05-20T03:26:11.709Z,23.91
2023-05-20T03:27:11.802Z,23.91
2023-05-20T03:28:11.843Z,23.91
2023-05-20T03:29:11.885Z,23.92
2023-05-20T03:30:11.952Z,23.91
2023-05-20T03:31:12.035Z,23.92
2023-05-20T03:32:12.067Z,23.91
2023-05-20T03:33:12.141Z,23.92
2023-05-20T03:34:12.212Z,23.92
2023-05-20T03:35:12.230Z,23.91
2023-05-20T03:36:12.332Z,23.91
2023-05-20T03:37:12.340Z,23.91
2023-05-20T03:38:12.432Z,23.90
2023-05-20T03:39:12.502Z,23.91
2023-05-20T03:40:12.558Z,23.90
2023-05-20T03:41:12.575Z,23.90
2023-05-20T03:42:12.676Z,23.89
2023-05-20T03:43:12.716Z,23.91
2023-05-20T03:44:12.781Z,23.91
2023-05-20T03:45:12.850Z,23.91
2023-05-20T03:46:12.924Z,23.91
2023-05-20T03:47:12.971Z,23.91
2023-05-20T03:48:13.006Z,23.91
2023-05-20T03:49:13.071Z,23.91
2023-05-20T03:50:13.126Z,23.92
2023-05-20T03:51:13.162Z,23.91
2023-05-20T03:52:13.232Z,23.92
2023-05-20T03:53:13.288Z,23.92
2023-05-20T03:54:13.372Z,23.92
2023-05-20T03:55:13.417Z,23.91
2023-05-20T03:56:13.471Z,23.90
2023-05-20T03:57:13.557Z,23.90
2023-05-20T03:58:13.646Z,23.90
2023-05-20T03:59:13.683Z,23.89
2023-05-20T04:00:13.720Z,23.89
2023-05-20T04:01:13.785Z,23.89
2023-05-20T04:02:13.879Z,23.90
2023-05-20T04:03:13.961Z,23.90
2023-05-20T04:04:14.110Z,23.90
2023-05-20T04:05:14.021Z,23.91
2023-05-20T04:06:14.056Z,23.90
2023-05-20T04:07:14.121Z,23.90
2023-05-20T04:08:14.194Z,23.91
2023-05-20T04:09:14.221Z,23.91
2023-05-20T04:10:14.316Z,23.92
2023-05-20T04:11:14.363Z,23.92
2023-05-20T04:12:14.435Z,23.91
2023-05-20T04:13:14.481Z,23.92
2023-05-20T04:14:14.529Z,23.91
2023-05-20T04:15:14.620Z,23.90
2023-05-20T04:16:14.670Z,23.90
2023-05-20T04:17:14.691Z,23.91
2023-05-20T04:18:14.839Z,23.91
2023-05-20T04:19:14.835Z,23.90
2023-05-20T04:20:14.914Z,23.91
2023-05-20T04:21:14.977Z,23.90
2023-05-20T04:22:14.993Z,23.90
2023-05-20T04:23:15.072Z,23.89
2023-05-20T04:24:15.101Z,23.90
2023-05-20T04:25:15.187Z,23.90
2023-05-20T04:26:15.263Z,23.90
2023-05-20T04:27:15.315Z,23.90
2023-05-20T04:28:15.374Z,23.92
2023-05-20T04:29:15.494Z,23.91
2023-05-20T04:30:15.622Z,23.92
2023-05-20T04:31:15.563Z,23.92
2023-05-20T04:32:15.695Z,23.92
2023-05-20T04:33:15.690Z,23.92
2023-05-20T04:34:15.717Z,23.91
2023-05-20T04:35:15.807Z,23.91
2023-05-20T04:36:15.862Z,23.90
2023-05-20T04:37:15.887Z,23.91
2023-05-20T04:38:15.962Z,23.90
2023-05-20T04:39:16.024Z,23.90
2023-05-20T04:40:16.114Z,23.90
2023-05-20T04:41:16.154Z,23.91
2023-05-20T04:42:16.244Z,23.91
2023-05-20T04:43:16.278Z,23.91
2023-05-20T04:44:16.305Z,23.92
2023-05-20T04:45:16.386Z,23.92
2023-05-20T04:46:16.457Z,23.92
2023-05-20T04:47:16.500Z,23.92
2023-05-20T04:48:16.554Z,23.92
2023-05-20T04:49:16.626Z,23.92
2023-05-20T04:50:16.675Z,23.92
2023-05-20T04:51:16.725Z,23.92
2023-05-20T04:52:16.804Z,23.93
2023-05-20T04:53:16.877Z,23.91
2023-05-20T04:54:16.880Z,23.92
2023-05-20T04:55:16.956Z,23.91
2023-05-20T04:56:17.057Z,23.92
2023-05-20T04:57:17.114Z,23.91
2023-05-20T04:58:17.167Z,23.91
2023-05-20T04:59:17.234Z,23.91
2023-05-20T05:00:17.260Z,23.91
2023-05-20T05:01:17.370Z,23.92
2023-05-20T05:02:18.319Z,23.92
2023-05-20T05:03:17.514Z,23.92
2023-05-20T05:04:17.493Z,23.92
2023-05-20T05:05:17.588Z,23.92
2023-05-20T05:06:17.608Z,23.93
2023-05-20T05:07:17.696Z,23.93
2023-05-20T05:08:17.717Z,23.92
2023-05-20T05:09:17.796Z,23.93
2023-05-20T05:10:17.910Z,23.93
2023-05-20T05:11:17.910Z,23.93
2023-05-20T05:12:17.960Z,23.93
2023-05-20T05:13:18.026Z,23.92
2023-05-20T05:14:18.083Z,23.93
2023-05-20T05:15:18.126Z,23.93
2023-05-20T05:16:18.209Z,23.93
2023-05-20T05:17:18.215Z,23.93
2023-05-20T05:18:18.306Z,23.93
2023-05-20T05:19:18.401Z,23.93
2023-05-20T05:20:18.446Z,23.94
2023-05-20T05:21:18.457Z,23.93
2023-05-20T05:22:18.506Z,23.93
2023-05-20T05:23:18.585Z,23.93
2023-05-20T05:24:18.632Z,23.93
2023-05-20T05:25:18.682Z,23.94
2023-05-20T05:26:18.688Z,23.94
2023-05-20T05:27:18.789Z,23.93
2023-05-20T05:28:18.814Z,23.93
2023-05-20T05:29:18.869Z,23.94
2023-05-20T05:30:18.913Z,23.93
2023-05-20T05:31:18.957Z,23.93
2023-05-20T05:32:19.090Z,23.93
2023-05-20T05:33:19.106Z,23.93
2023-05-20T05:34:19.147Z,23.94
2023-05-20T05:35:19.209Z,23.94
2023-05-20T05:36:19.210Z,23.93
2023-05-20T05:37:19.272Z,23.94
2023-05-20T05:38:19.341Z,23.94
2023-05-20T05:39:19.383Z,23.94
2023-05-20T05:40:19.452Z,23.94
2023-05-20T05:41:19.501Z,23.94
2023-05-20T05:42:19.557Z,23.94
2023-05-20T05:43:19.628Z,23.94
2023-05-20T05:44:19.682Z,23.95
2023-05-20T05:45:19.678Z,23.95
2023-05-20T05:46:19.751Z,23.94
2023-05-20T05:47:19.804Z,23.95
2023-05-20T05:48:19.848Z,23.95
2023-05-20T05:49:19.905Z,23.95
2023-05-20T05:50:19.944Z,23.95
2023-05-20T05:51:20.036Z,23.95
2023-05-20T05:52:20.046Z,23.94
2023-05-20T05:53:20.117Z,23.94
2023-05-20T05:54:20.158Z,23.94
2023-05-20T05:55:20.192Z,23.95
2023-05-20T05:56:20.267Z,23.96
2023-05-20T05:57:20.328Z,23.95
2023-05-20T05:58:20.362Z,23.95
2023-05-20T05:59:20.390Z,23.96
2023-05-20T06:00:20.473Z,23.96
2023-05-20T06:01:20.644Z,23.96
2023-05-20T06:02:20.592Z,23.96
2023-05-20T06:03:20.703Z,23.96
2023-05-20T06:04:20.702Z,23.96
2023-05-20T06:05:20.740Z,23.96
2023-05-20T06:06:20.781Z,23.96
2023-05-20T06:07:20.806Z,23.95
2023-05-20T06:08:20.932Z,23.96
2023-05-20T06:09:20.954Z,23.95
2023-05-20T06:10:20.996Z,23.96
2023-05-20T06:11:21.016Z,23.96
2023-05-20T06:12:21.081Z,23.96
2023-05-20T06:13:21.133Z,23.96
2023-05-20T06:14:21.197Z,23.97
2023-05-20T06:15:21.224Z,23.97
2023-05-20T06:16:21.316Z,23.97
2023-05-20T06:17:21.437Z,23.97
2023-05-20T06:18:21.389Z,23.98
2023-05-20T06:19:21.433Z,23.98
2023-05-20T06:20:21.471Z,23.98
2023-05-20T06:21:21.568Z,23.98
2023-05-20T06:22:21.580Z,23.97
2023-05-20T06:23:21.638Z,23.98
2023-05-20T06:24:24.270Z,23.98
2023-05-20T06:25:21.649Z,23.98
2023-05-20T06:26:21.682Z,23.98
2023-05-20T06:27:21.652Z,23.97
2023-05-20T06:28:21.677Z,23.97
2023-05-20T06:29:21.640Z,23.98
2023-05-20T06:30:21.616Z,23.98
2023-05-20T06:31:21.635Z,23.99
2023-05-20T06:32:21.654Z,23.99
2023-05-20T06:33:21.604Z,24.00
2023-05-20T06:34:21.623Z,24.00
2023-05-20T06:35:21.625Z,23.99
2023-05-20T06:36:21.599Z,24.00
2023-05-20T06:37:21.602Z,24.00
2023-05-20T06:38:21.644Z,23.99
2023-05-20T06:39:21.569Z,23.99
2023-05-20T06:40:21.577Z,23.99
2023-05-20T06:41:21.552Z,24.00
2023-05-20T06:42:21.602Z,24.00
2023-05-20T06:43:21.544Z,24.00
2023-05-20T06:44:21.553Z,24.02
2023-05-20T06:45:21.538Z,24.02
2023-05-20T06:46:21.653Z,24.02
2023-05-20T06:47:21.599Z,24.03
2023-05-20T06:48:21.520Z,24.05
2023-05-20T06:49:21.514Z,24.05
2023-05-20T06:50:21.510Z,24.05
2023-05-20T06:51:21.514Z,24.07
2023-05-20T06:52:21.521Z,24.07
2023-05-20T06:53:21.471Z,24.07
2023-05-20T06:54:21.481Z,24.07
2023-05-20T06:55:21.490Z,24.07
2023-05-20T06:56:21.491Z,24.08
2023-05-20T06:57:21.467Z,24.09
2023-05-20T06:58:21.518Z,24.08
2023-05-20T06:59:21.450Z,24.08
2023-05-20T07:00:21.440Z,24.07
2023-05-20T07:01:21.450Z,24.08
2023-05-20T07:02:21.467Z,24.07
2023-05-20T07:03:21.473Z,24.10
2023-05-20T07:04:21.455Z,24.09
2023-05-20T07:05:21.430Z,24.09
2023-05-20T07:06:21.386Z,24.07
2023-05-20T07:07:21.409Z,24.06
2023-05-20T07:08:21.371Z,24.08
2023-05-20T07:09:21.408Z,24.09
2023-05-20T07:10:21.465Z,24.08
2023-05-20T07:11:21.522Z,24.08
2023-05-20T07:12:21.551Z,24.09
2023-05-20T07:13:21.626Z,24.07
2023-05-20T07:14:21.675Z,24.08
2023-05-20T07:15:21.693Z,24.07
2023-05-20T07:16:21.810Z,24.07
2023-05-20T07:17:21.812Z,24.09
2023-05-20T07:18:21.864Z,24.09
2023-05-20T07:19:21.925Z,24.11
2023-05-20T07:20:21.976Z,24.11
2023-05-20T07:21:21.985Z,24.11
2023-05-20T07:22:22.048Z,24.11
2023-05-20T07:23:22.064Z,24.11
2023-05-20T07:24:22.142Z,24.10
2023-05-20T07:25:22.178Z,24.09
2023-05-20T07:26:22.229Z,24.10
2023-05-20T07:27:22.310Z,24.11
2023-05-20T07:28:22.335Z,24.11
2023-05-20T07:29:22.396Z,24.12
2023-05-20T07:30:22.413Z,24.12
2023-05-20T07:31:22.610Z,24.12
2023-05-20T07:32:22.515Z,24.12
2023-05-20T07:33:22.585Z,24.13
2023-05-20T07:34:22.650Z,24.11
2023-05-20T07:35:22.702Z,24.10
2023-05-20T07:36:22.724Z,24.13
2023-05-20T07:37:22.771Z,24.13
2023-05-20T07:38:22.818Z,24.10
2023-05-20T07:39:22.876Z,24.11
2023-05-20T07:40:22.905Z,24.12
2023-05-20T07:41:22.997Z,24.12
2023-05-20T07:42:23.024Z,24.12
2023-05-20T07:43:23.080Z,24.11
2023-05-20T07:44:23.121Z,24.12
2023-05-20T07:45:23.154Z,24.13
2023-05-20T07:46:23.248Z,24.12
2023-05-20T07:47:23.269Z,24.12
2023-05-20T07:48:23.297Z,24.11
2023-05-20T07:49:23.352Z,24.12
2023-05-20T07:50:23.444Z,24.13
2023-05-20T07:51:23.438Z,24.14
2023-05-20T07:52:23.505Z,24.14
2023-05-20T07:53:23.532Z,24.13
2023-05-20T07:54:23.556Z,24.13
2023-05-20T07:55:23.633Z,24.12
2023-05-20T07:56:23.652Z,24.12
2023-05-20T07:57:23.692Z,24.12
2023-05-20T07:58:23.727Z,24.10
2023-05-20T07:59:23.806Z,24.14
2023-05-20T08:00:23.877Z,24.12
2023-05-20T08:01:23.862Z,24.13
2023-05-20T08:02:23.977Z,24.15
2023-05-20T08:03:24.017Z,24.14
2023-05-20T08:04:24.047Z,24.14
2023-05-20T08:05:24.029Z,24.12
2023-05-20T08:06:24.092Z,24.12
2023-05-20T08:07:24.138Z,24.12
2023-05-20T08:08:24.181Z,24.12
2023-05-20T08:09:24.187Z,24.12
2023-05-20T08:10:24.216Z,24.13
2023-05-20T08:11:24.299Z,24.14
2023-05-20T08:12:24.339Z,24.16
2023-05-20T08:13:24.370Z,24.15
2023-05-20T08:14:24.415Z,24.16
2023-05-20T08:15:24.446Z,24.15
2023-05-20T08:16:24.519Z,24.15
2023-05-20T08:17:24.542Z,24.15
2023-05-20T08:18:24.578Z,24.15
2023-05-20T08:19:24.727Z,24.15
2023-05-20T08:20:24.638Z,24.16
2023-05-20T08:21:24.709Z,24.16
2023-05-20T08:22:24.786Z,24.16
2023-05-20T08:23:24.744Z,24.16
2023-05-20T08:24:24.791Z,24.15
2023-05-20T08:25:24.854Z,24.16
2023-05-20T08:26:24.840Z,24.16
2023-05-20T08:27:24.899Z,24.16
2023-05-20T08:28:24.927Z,24.16
2023-05-20T08:29:24.968Z,24.16
2023-05-20T08:30:24.992Z,24.16
2023-05-20T08:31:25.063Z,24.16
2023-05-20T08:32:25.066Z,24.16
2023-05-20T08:33:25.104Z,24.16
2023-05-20T08:34:25.093Z,24.16
2023-05-20T08:35:25.154Z,24.16
2023-05-20T08:36:25.157Z,24.16
2023-05-20T08:37:25.200Z,24.17
2023-05-20T08:38:25.253Z,24.17
2023-05-20T08:39:25.266Z,24.17
2023-05-20T08:40:25.307Z,24.18
2023-05-20T08:41:25.321Z,24.19
2023-05-20T08:42:25.396Z,24.19
2023-05-20T08:43:25.376Z,24.18
2023-05-20T08:44:25.426Z,24.19
2023-05-20T08:45:25.467Z,24.19
2023-05-20T08:46:25.495Z,24.19
2023-05-20T08:47:25.531Z,24.19
2023-05-20T08:48:25.579Z,24.18
2023-05-20T08:49:25.590Z,24.19
2023-05-20T08:50:25.608Z,24.18
2023-05-20T08:51:25.648Z,24.18
2023-05-20T08:52:25.685Z,24.18
2023-05-20T08:53:25.693Z,24.17
2023-05-20T08:54:25.743Z,24.17
2023-05-20T08:55:25.754Z,24.17
2023-05-20T08:56:25.782Z,24.18
2023-05-20T08:57:25.821Z,24.18
2023-05-20T08:58:25.830Z,24.18
2023-05-20T08:59:25.898Z,24.19
2023-05-20T09:00:25.870Z,24.19
2023-05-20T09:01:25.965Z,24.19
2023-05-20T09:02:26.025Z,24.19
2023-05-20T09:03:25.999Z,24.19
2023-05-20T09:04:26.066Z,24.19
2023-05-20T09:05:26.045Z,24.20
2023-05-20T09:06:26.106Z,24.20
2023-05-20T09:07:26.090Z,24.21
2023-05-20T09:08:26.183Z,24.21
2023-05-20T09:09:26.176Z,24.21
2023-05-20T09:10:26.204Z,24.20
2023-05-20T09:11:26.310Z,24.20
2023-05-20T09:12:26.251Z,24.20
2023-05-20T09:13:26.259Z,24.20
2023-05-20T09:14:26.309Z,24.21
2023-05-20T09:15:26.320Z,24.21
2023-05-20T09:16:26.416Z,24.22
2023-05-20T09:17:26.387Z,24.23
2023-05-20T09:18:26.399Z,24.23
2023-05-20T09:19:26.485Z,24.24
2023-05-20T09:20:26.477Z,24.25
2023-05-20T09:21:26.458Z,24.25
2023-05-20T09:22:26.491Z,24.25
2023-05-20T09:23:26.543Z,24.25
2023-05-20T09:24:26.854Z,24.25
2023-05-20T09:25:26.612Z,24.26
2023-05-20T09:26:26.641Z,24.26
2023-05-20T09:27:26.668Z,24.26
2023-05-20T09:28:26.685Z,24.26
2023-05-20T09:29:26.697Z,24.27
2023-05-20T09:30:26.788Z,24.27
2023-05-20T09:31:26.845Z,24.27
2023-05-20T09:32:26.788Z,24.28
2023-05-20T09:33:26.821Z,24.29
2023-05-20T09:34:26.867Z,24.29
2023-05-20T09:35:26.882Z,24.29
2023-05-20T09:36:26.877Z,24.29
2023-05-20T09:37:26.906Z,24.28
2023-05-20T09:38:26.964Z,24.28
2023-05-20T09:39:27.002Z,24.28
2023-05-20T09:40:27.024Z,24.29
2023-05-20T09:41:27.045Z,24.29
2023-05-20T09:42:27.071Z,24.29
2023-05-20T09:43:27.128Z,24.30
2023-05-20T09:44:27.110Z,24.29
2023-05-20T09:45:27.195Z,24.29
2023-05-20T09:46:27.200Z,24.28
2023-05-20T09:47:27.268Z,24.28
2023-05-20T09:48:27.264Z,24.28
2023-05-20T09:49:27.288Z,24.28
2023-05-20T09:50:27.341Z,24.28
2023-05-20T09:51:27.368Z,24.28
2023-05-20T09:52:27.405Z,24.29
2023-05-20T09:53:27.480Z,24.29
2023-05-20T09:54:27.490Z,24.30
2023-05-20T09:55:27.505Z,24.30
2023-05-20T09:56:27.534Z,24.30
2023-05-20T09:57:27.570Z,24.30
2023-05-20T09:58:27.585Z,24.30
2023-05-20T09:59:27.664Z,24.31
2023-05-20T10:00:27.642Z,24.31
2023-05-20T10:01:27.726Z,24.30
2023-05-20T10:02:27.818Z,24.29
2023-05-20T10:03:28.028Z,24.30
2023-05-20T10:04:27.796Z,24.30
2023-05-20T10:05:27.826Z,24.30
2023-05-20T10:06:27.834Z,24.31
2023-05-20T10:07:41.395Z,24.30
2023-05-20T10:08:28.870Z,24.29
2023-05-20T10:09:27.884Z,24.30
2023-05-20T10:10:27.839Z,24.29
2023-05-20T10:11:27.852Z,24.29
2023-05-20T10:12:27.853Z,24.29
2023-05-20T10:13:27.830Z,24.29
2023-05-20T10:14:27.808Z,24.29
2023-05-20T10:15:28.125Z,24.29
2023-05-20T10:16:27.926Z,24.29
2023-05-20T10:17:28.293Z,24.29
2023-05-20T10:18:27.783Z,24.30
2023-05-20T10:19:28.855Z,24.30
2023-05-20T10:20:27.759Z,24.29
2023-05-20T10:21:27.789Z,24.28
2023-05-20T10:22:27.779Z,24.29
2023-05-20T10:23:27.811Z,24.28
2023-05-20T10:24:27.834Z,24.28
2023-05-20T10:25:27.913Z,24.29
2023-05-20T10:26:27.906Z,24.29
2023-05-20T10:27:27.920Z,24.29
2023-05-20T10:28:27.970Z,24.29
2023-05-20T10:29:27.985Z,24.31
2023-05-20T10:30:28.033Z,24.30
2023-05-20T10:31:28.096Z,24.31
2023-05-20T10:32:28.252Z,24.32
2023-05-20T10:33:28.173Z,24.31
2023-05-20T10:34:28.154Z,24.31
2023-05-20T10:35:28.203Z,24.32
2023-05-20T10:36:28.199Z,24.33
2023-05-20T10:37:28.220Z,24.34
2023-05-20T10:38:28.261Z,24.34
2023-05-20T10:39:28.278Z,24.35
2023-05-20T10:40:28.295Z,24.35
2023-05-20T10:41:28.349Z,24.36
2023-05-20T10:42:28.366Z,24.36
2023-05-20T10:43:28.396Z,24.36
2023-05-20T10:44:28.398Z,24.37
2023-05-20T10:45:28.470Z,24.37
2023-05-20T10:46:38.087Z,24.38
2023-05-20T10:47:29.521Z,24.38
2023-05-20T10:48:28.501Z,24.38
2023-05-20T10:49:28.557Z,24.39
2023-05-20T10:50:28.417Z,24.39
2023-05-20T10:51:28.420Z,24.40
2023-05-20T10:52:28.424Z,24.39
2023-05-20T10:53:34.037Z,24.39
2023-05-20T10:54:29.408Z,24.39
2023-05-20T10:55:28.396Z,24.39
2023-05-20T10:56:28.383Z,24.38
2023-05-20T10:57:28.416Z,24.38
2023-05-20T10:58:28.362Z,24.40
2023-05-20T10:59:28.368Z,24.40
2023-05-20T11:00:28.372Z,24.40
2023-05-20T11:01:28.393Z,24.40
2023-05-20T11:02:28.401Z,24.41
2023-05-20T11:03:28.428Z,24.40
2023-05-20T11:04:28.367Z,24.40
2023-05-20T11:05:28.352Z,24.40
2023-05-20T11:06:28.352Z,24.41
2023-05-20T11:07:28.358Z,24.41
2023-05-20T11:08:29.632Z,24.41
2023-05-20T11:09:28.344Z,24.40
2023-05-20T11:10:28.303Z,24.41
2023-05-20T11:11:28.275Z,24.42
2023-05-20T11:12:28.300Z,24.42
2023-05-20T11:13:28.396Z,24.42
2023-05-20T11:14:28.337Z,24.42
2023-05-20T11:15:28.365Z,24.43
2023-05-20T11:16:28.400Z,24.42
2023-05-20T11:17:28.443Z,24.42
2023-05-20T11:18:28.824Z,24.42
2023-05-20T11:19:28.575Z,24.41
2023-05-20T11:20:28.475Z,24.43
2023-05-20T11:21:28.454Z,24.43
2023-05-20T11:22:28.533Z,24.43
2023-05-20T11:23:28.581Z,24.43
2023-05-20T11:24:28.577Z,24.43
2023-05-20T11:25:28.583Z,24.43
2023-05-20T11:26:28.603Z,24.43
2023-05-20T11:27:28.653Z,24.42
2023-05-20T11:28:28.666Z,24.42
2023-05-20T11:29:28.715Z,24.42
2023-05-20T11:30:28.700Z,24.42
2023-05-20T11:31:28.740Z,24.42
2023-05-20T11:32:28.883Z,24.42
2023-05-20T11:33:28.743Z,24.43
2023-05-20T11:34:29.977Z,24.43
2023-05-20T11:35:28.806Z,24.43
2023-05-20T11:36:28.830Z,24.43
2023-05-20T11:37:28.854Z,24.44
2023-05-20T11:38:28.888Z,24.45
2023-05-20T11:39:28.895Z,24.44
2023-05-20T11:40:35.707Z,24.44
2023-05-20T11:41:29.948Z,24.44
2023-05-20T11:42:28.910Z,24.44
2023-05-20T11:43:28.914Z,24.45
2023-05-20T11:44:28.882Z,24.45
2023-05-20T11:45:28.875Z,24.45
2023-05-20T11:46:29.065Z,24.46
2023-05-20T11:47:28.884Z,24.46
2023-05-20T11:48:28.887Z,24.46
2023-05-20T11:49:28.922Z,24.46
2023-05-20T11:50:28.826Z,24.47
2023-05-20T11:51:28.861Z,24.47
2023-05-20T11:52:28.846Z,24.47
2023-05-20T11:53:28.821Z,24.47
2023-05-20T11:54:28.833Z,24.47
2023-05-20T11:55:28.813Z,24.47
2023-05-20T11:56:28.827Z,24.47
2023-05-20T11:57:28.789Z,24.47
2023-05-20T11:58:28.815Z,24.47
2023-05-20T11:59:28.773Z,24.48
2023-05-20T12:00:31.332Z,24.47
2023-05-20T12:01:29.784Z,24.47
2023-05-20T12:02:28.923Z,24.48
2023-05-20T12:03:28.930Z,24.48
2023-05-20T12:04:28.788Z,24.48
2023-05-20T12:05:28.741Z,24.48
2023-05-20T12:06:28.737Z,24.48
2023-05-20T12:07:28.737Z,24.48
2023-05-20T12:08:28.726Z,24.48
2023-05-20T12:09:28.698Z,24.48
2023-05-20T12:10:28.739Z,24.48
2023-05-20T12:11:28.702Z,24.49
2023-05-20T12:12:28.711Z,24.49
2023-05-20T12:13:28.720Z,24.49
2023-05-20T12:14:28.686Z,24.50
2023-05-20T12:15:28.687Z,24.49
2023-05-20T12:16:28.723Z,24.50
2023-05-20T12:17:28.690Z,24.49
2023-05-20T12:18:28.675Z,24.50
2023-05-20T12:19:28.719Z,24.50
2023-05-20T12:20:28.640Z,24.49
2023-05-20T12:21:28.606Z,24.49
2023-05-20T12:22:28.665Z,24.48
2023-05-20T12:23:28.681Z,24.48
2023-05-20T12:24:28.692Z,24.48
2023-05-20T12:25:28.715Z,24.48
2023-05-20T12:26:28.743Z,24.49
2023-05-20T12:27:28.744Z,24.48
2023-05-20T12:28:28.801Z,24.47
2023-05-20T12:29:28.882Z,24.47
2023-05-20T12:30:28.850Z,24.47
2023-05-20T12:31:28.901Z,24.47
2023-05-20T12:32:28.936Z,24.47
2023-05-20T12:33:28.938Z,24.46
2023-05-20T12:34:28.909Z,24.48
2023-05-20T12:35:28.955Z,24.46
2023-05-20T12:36:28.994Z,24.46
2023-05-20T12:37:28.972Z,24.46
2023-05-20T12:38:29.009Z,24.46
2023-05-20T12:39:29.005Z,24.46
2023-05-20T12:40:29.047Z,24.46
2023-05-20T12:41:29.070Z,24.46
2023-05-20T12:42:29.057Z,24.46
2023-05-20T12:43:29.105Z,24.47
2023-05-20T12:44:29.152Z,24.47
2023-05-20T12:45:29.159Z,24.46
2023-05-20T12:46:29.193Z,24.47
2023-05-20T12:47:29.199Z,24.46
2023-05-20T12:48:29.204Z,24.46
2023-05-20T12:49:29.193Z,24.46
2023-05-20T12:50:29.210Z,24.47
2023-05-20T12:51:29.283Z,24.46
2023-05-20T12:52:29.256Z,24.46
2023-05-20T12:53:29.323Z,24.46